createdAt,value
2018-05-10T00:01:12.794Z,11.73
2018-05-10T00:03:40.280Z,12.27
2018-05-10T00:06:07.762Z,11.23
2018-05-10T00:08:35.268Z,10.87
2018-05-10T00:11:02.770Z,14.47
2018-05-10T00:13:30.281Z,51.10
2018-05-10T00:15:57.777Z,15.47
2018-05-10T00:18:25.332Z,12.43
2018-05-10T00:20:52.764Z,14.10
2018-05-10T00:23:20.246Z,17.33
2018-05-10T00:25:47.765Z,11.33
2018-05-10T00:28:15.257Z,10.87
2018-05-10T00:30:42.784Z,11.77
2018-05-10T00:33:10.247Z,10.13
2018-05-10T00:35:37.747Z,9.77
2018-05-10T00:38:05.293Z,11.17
2018-05-10T00:40:32.783Z,13.90
2018-05-10T00:43:00.255Z,15.80
2018-05-10T00:45:27.754Z,13.73
2018-05-10T00:47:55.285Z,12.83
2018-05-10T00:50:22.754Z,11.90
2018-05-10T00:52:50.241Z,16.93
2018-05-10T00:55:17.740Z,19.60
2018-05-10T00:57:45.252Z,32.80
2018-05-10T01:00:12.707Z,19.23
2018-05-10T01:02:40.203Z,14.87
2018-05-10T01:05:07.695Z,12.63
2018-05-10T01:07:35.307Z,12.27
2018-05-10T01:10:02.792Z,22.00
2018-05-10T01:12:30.324Z,12.67
2018-05-10T01:14:57.802Z,12.17
2018-05-10T01:17:25.280Z,10.40
2018-05-10T01:19:52.793Z,15.00
2018-05-10T01:22:20.267Z,11.10
2018-05-10T01:24:47.765Z,14.07
2018-05-10T01:27:15.273Z,10.07
2018-05-10T01:29:42.772Z,9.20
2018-05-10T01:32:10.328Z,8.83
2018-05-10T01:34:37.794Z,9.37
2018-05-10T01:37:05.384Z,10.07
2018-05-10T01:39:32.871Z,11.07
2018-05-10T01:42:00.349Z,8.80
2018-05-10T01:44:27.876Z,9.33
2018-05-10T01:46:55.409Z,9.77
2018-05-10T01:49:22.962Z,10.17
2018-05-10T01:51:50.423Z,9.80
2018-05-10T01:54:17.920Z,9.57
2018-05-10T01:56:45.429Z,10.77
2018-05-10T01:59:12.883Z,10.20
2018-05-10T02:01:40.440Z,8.93
2018-05-10T02:04:07.926Z,9.90
2018-05-10T02:06:35.413Z,9.80
2018-05-10T02:09:02.913Z,8.80
2018-05-10T02:11:30.426Z,9.07
2018-05-10T02:13:57.929Z,9.30
2018-05-10T02:16:25.415Z,9.87
2018-05-10T02:18:52.916Z,9.50
2018-05-10T02:21:20.383Z,9.53
2018-05-10T02:23:47.904Z,9.33
2018-05-10T02:26:15.466Z,9.50
2018-05-10T02:28:42.943Z,8.50
2018-05-10T02:31:10.396Z,8.93
2018-05-10T02:33:37.951Z,8.43
2018-05-10T02:36:05.486Z,9.27
2018-05-10T02:38:32.976Z,8.80
2018-05-10T02:41:00.572Z,9.40
2018-05-10T02:43:28.033Z,9.43
2018-05-10T02:45:55.489Z,9.40
2018-05-10T02:48:23.026Z,10.37
2018-05-10T02:50:50.497Z,10.23
2018-05-10T02:53:17.976Z,10.10
2018-05-10T02:55:45.540Z,9.47
2018-05-10T02:58:13.055Z,8.30
2018-05-10T03:00:40.549Z,9.77
2018-05-10T03:03:08.042Z,9.23
2018-05-10T03:05:35.539Z,10.10
2018-05-10T03:08:02.998Z,9.00
2018-05-10T03:10:30.454Z,9.90
2018-05-10T03:12:57.974Z,8.43
2018-05-10T03:15:25.508Z,8.97
2018-05-10T03:17:52.959Z,8.93
2018-05-10T03:20:20.496Z,9.40
2018-05-10T03:22:47.968Z,9.00
2018-05-10T03:25:15.555Z,9.53
2018-05-10T03:27:43.015Z,9.17
2018-05-10T03:30:10.480Z,10.20
2018-05-10T03:32:37.985Z,9.00
2018-05-10T03:35:05.576Z,8.90
2018-05-10T03:37:33.068Z,9.70
2018-05-10T03:40:00.792Z,9.27
2018-05-10T03:42:28.323Z,9.97
2018-05-10T03:44:55.786Z,9.10
2018-05-10T03:47:23.281Z,9.37
2018-05-10T03:49:50.746Z,8.40
2018-05-10T03:52:18.296Z,9.17
2018-05-10T03:54:45.759Z,8.27
2018-05-10T03:57:13.221Z,9.27
2018-05-10T03:59:40.696Z,9.70
2018-05-10T04:02:08.183Z,9.17
2018-05-10T04:04:47.431Z,8.87
2018-05-10T04:07:26.914Z,8.97
2018-05-10T04:10:06.260Z,8.60
2018-05-10T04:12:33.716Z,9.30
2018-05-10T04:15:01.225Z,9.20
2018-05-10T04:17:28.726Z,9.30
2018-05-10T04:19:56.221Z,10.23
2018-05-10T04:22:23.699Z,11.10
2018-05-10T04:24:51.238Z,8.70
2018-05-10T04:27:18.700Z,8.87
2018-05-10T04:29:46.189Z,9.60
2018-05-10T04:32:13.709Z,8.53
2018-05-10T04:34:41.223Z,10.00
2018-05-10T04:37:08.732Z,9.67
2018-05-10T04:39:36.206Z,13.70
2018-05-10T04:42:03.797Z,10.30
2018-05-10T04:44:31.327Z,9.87
2018-05-10T04:46:58.809Z,9.83
2018-05-10T04:49:26.291Z,9.70
2018-05-10T04:51:53.794Z,10.40
2018-05-10T04:54:21.265Z,9.20
2018-05-10T04:56:48.737Z,8.60
2018-05-10T04:59:16.184Z,9.87
2018-05-10T05:01:43.684Z,8.70
2018-05-10T05:04:11.176Z,10.30
2018-05-10T05:06:38.760Z,9.50
2018-05-10T05:09:06.284Z,9.47
2018-05-10T05:11:33.733Z,11.43
2018-05-10T05:14:01.225Z,9.27
2018-05-10T05:16:28.752Z,9.93
2018-05-10T05:18:56.204Z,9.20
2018-05-10T05:21:23.825Z,9.97
2018-05-10T05:23:51.263Z,9.57
2018-05-10T05:26:18.785Z,9.00
2018-05-10T05:28:46.261Z,8.10
2018-05-10T05:31:13.850Z,9.00
2018-05-10T05:33:41.355Z,8.87
2018-05-10T05:36:08.809Z,8.90
2018-05-10T05:38:36.324Z,8.60
2018-05-10T05:41:03.817Z,9.87
2018-05-10T05:43:31.331Z,9.73
2018-05-10T05:45:58.902Z,10.10
2018-05-10T05:48:26.373Z,8.27
2018-05-10T05:50:53.857Z,8.40
2018-05-10T05:53:21.371Z,8.90
2018-05-10T05:55:48.876Z,8.77
2018-05-10T05:58:16.333Z,8.80
2018-05-10T06:00:43.840Z,9.80
2018-05-10T06:03:11.315Z,9.13
2018-05-10T06:05:38.799Z,8.17
2018-05-10T06:08:06.261Z,9.43
2018-05-10T06:10:33.750Z,9.87
2018-05-10T06:13:01.261Z,9.50
2018-05-10T06:15:28.775Z,9.20
2018-05-10T06:17:56.313Z,8.40
2018-05-10T06:20:23.899Z,8.97
2018-05-10T06:22:51.376Z,9.87
2018-05-10T06:25:18.886Z,9.30
2018-05-10T06:27:46.377Z,9.87
2018-05-10T06:30:13.843Z,9.13
2018-05-10T06:32:41.377Z,10.63
2018-05-10T06:35:08.955Z,9.43
2018-05-10T06:37:36.440Z,9.57
2018-05-10T06:40:03.972Z,10.83
2018-05-10T06:42:31.489Z,10.13
2018-05-10T06:44:58.956Z,9.40
2018-05-10T06:47:26.444Z,9.77
2018-05-10T06:49:54.175Z,9.60
2018-05-10T06:52:21.735Z,9.27
2018-05-10T06:54:49.291Z,9.27
2018-05-10T06:57:16.780Z,10.27
2018-05-10T06:59:44.249Z,9.33
2018-05-10T07:02:11.715Z,10.60
2018-05-10T07:04:39.172Z,8.90
2018-05-10T07:07:06.690Z,8.80
2018-05-10T07:09:34.251Z,9.00
2018-05-10T07:12:01.731Z,9.93
2018-05-10T07:14:29.231Z,9.33
2018-05-10T07:16:56.712Z,9.03
2018-05-10T07:19:24.182Z,9.60
2018-05-10T07:21:51.681Z,12.10
2018-05-10T07:24:19.151Z,9.40
2018-05-10T07:26:46.632Z,12.00
2018-05-10T07:29:14.392Z,9.70
2018-05-10T07:31:41.859Z,9.40
2018-05-10T07:34:09.322Z,9.70
2018-05-10T07:36:36.834Z,9.67
2018-05-10T07:39:04.305Z,16.33
2018-05-10T07:41:31.795Z,14.07
2018-05-10T07:43:59.257Z,8.17
2018-05-10T07:46:26.716Z,10.10
2018-05-10T07:48:54.192Z,10.30
2018-05-10T07:51:21.656Z,8.10
2018-05-10T07:53:49.222Z,8.53
2018-05-10T07:56:16.687Z,8.00
2018-05-10T07:58:44.156Z,8.73
2018-05-10T08:01:11.641Z,10.17
2018-05-10T08:03:39.113Z,10.23
2018-05-10T08:06:06.596Z,10.00
2018-05-10T08:08:34.088Z,8.30
2018-05-10T08:11:01.591Z,8.57
2018-05-10T08:13:29.145Z,7.27
2018-05-10T08:15:56.745Z,8.00
2018-05-10T08:18:24.276Z,8.20
2018-05-10T08:20:51.773Z,7.60
2018-05-10T08:23:19.272Z,7.97
2018-05-10T08:25:46.798Z,8.37
2018-05-10T08:28:14.357Z,7.80
2018-05-10T08:30:41.872Z,8.73
2018-05-10T08:33:09.340Z,8.87
2018-05-10T08:35:36.850Z,6.90
2018-05-10T08:38:04.369Z,6.80
2018-05-10T08:40:31.940Z,7.20
2018-05-10T08:42:59.443Z,6.80
2018-05-10T08:48:00.749Z,7.33
2018-05-10T08:50:28.271Z,6.20
2018-05-10T08:52:55.767Z,8.40
2018-05-10T08:55:23.226Z,5.63
2018-05-10T08:57:50.720Z,5.93
2018-05-10T09:00:18.206Z,6.07
2018-05-10T09:02:45.691Z,5.90
2018-05-10T09:05:13.228Z,6.93
2018-05-10T09:07:40.690Z,6.87
2018-05-10T09:10:08.193Z,7.30
2018-05-10T09:12:35.710Z,6.20
2018-05-10T09:15:03.274Z,6.83
2018-05-10T09:17:30.856Z,8.97
2018-05-10T09:19:58.379Z,6.73
2018-05-10T09:22:25.866Z,6.23
2018-05-10T09:24:53.348Z,6.73
2018-05-10T09:27:20.831Z,6.70
2018-05-10T09:29:48.297Z,8.00
2018-05-10T09:32:16.588Z,7.30
2018-05-10T09:34:44.518Z,6.47
2018-05-10T09:37:12.200Z,6.70
2018-05-10T09:39:39.828Z,6.93
2018-05-10T09:42:07.293Z,7.77
2018-05-10T09:44:34.943Z,7.47
2018-05-10T09:47:02.405Z,7.10
2018-05-10T09:49:29.900Z,6.87
2018-05-10T09:51:57.372Z,6.23
2018-05-10T09:54:24.968Z,6.90
2018-05-10T09:56:52.518Z,7.53
2018-05-10T09:59:19.976Z,7.03
2018-05-10T10:01:47.672Z,8.70
2018-05-10T10:04:15.197Z,7.50
2018-05-10T10:06:42.749Z,7.00
2018-05-10T10:09:10.264Z,6.83
2018-05-10T10:11:37.756Z,6.13
2018-05-10T10:14:05.320Z,5.83
2018-05-10T10:16:32.793Z,7.30
2018-05-10T10:19:00.368Z,6.53
2018-05-10T10:21:27.869Z,6.40
2018-05-10T10:23:55.421Z,6.47
2018-05-10T10:26:22.896Z,5.80
2018-05-10T10:28:50.355Z,7.33
2018-05-10T10:31:17.838Z,7.40
2018-05-10T10:33:45.376Z,6.50
2018-05-10T10:36:12.969Z,6.53
2018-05-10T10:38:40.485Z,6.70
2018-05-10T10:41:07.977Z,5.70
2018-05-10T10:43:35.472Z,5.83
2018-05-10T10:46:02.987Z,6.27
2018-05-10T10:48:30.496Z,6.37
2018-05-10T10:50:58.093Z,5.90
2018-05-10T10:53:25.547Z,5.30
2018-05-10T10:55:53.026Z,5.13
2018-05-10T10:58:20.534Z,5.90
2018-05-10T11:00:48.022Z,6.87
2018-05-10T11:03:15.500Z,6.40
2018-05-10T11:05:42.951Z,6.20
2018-05-10T11:08:10.400Z,6.43
2018-05-10T11:10:37.875Z,6.23
2018-05-10T11:13:05.368Z,5.73
2018-05-10T11:15:32.863Z,5.70
2018-05-10T11:18:00.350Z,4.73
2018-05-10T11:20:27.846Z,6.70
2018-05-10T11:22:55.344Z,6.20
2018-05-10T11:25:22.883Z,6.63
2018-05-10T11:27:50.333Z,5.87
2018-05-10T11:30:17.901Z,6.50
2018-05-10T11:32:45.413Z,5.80
2018-05-10T11:35:12.901Z,7.17
2018-05-10T11:37:40.418Z,6.80
2018-05-10T11:40:07.907Z,7.30
2018-05-10T11:42:35.548Z,6.40
2018-05-10T11:45:03.219Z,6.37
2018-05-10T11:47:30.762Z,6.90
2018-05-10T11:49:58.311Z,5.93
2018-05-10T11:52:25.826Z,5.30
2018-05-10T11:54:53.281Z,5.60
2018-05-10T11:57:21.001Z,6.53
2018-05-10T11:59:48.401Z,6.40
2018-05-10T12:02:15.880Z,7.50
2018-05-10T12:04:43.340Z,6.20
2018-05-10T12:07:10.841Z,5.87
2018-05-10T12:09:38.296Z,6.50
2018-05-10T12:12:05.852Z,6.13
2018-05-10T12:14:33.353Z,5.73
2018-05-10T12:17:00.871Z,7.40
2018-05-10T12:19:28.386Z,5.50
2018-05-10T12:21:55.856Z,6.67
2018-05-10T12:24:23.353Z,6.93
2018-05-10T12:26:50.895Z,6.80
2018-05-10T12:29:18.360Z,6.23
2018-05-10T12:31:45.845Z,6.00
2018-05-10T12:34:13.398Z,6.70
2018-05-10T12:36:40.913Z,5.10
2018-05-10T12:39:08.388Z,6.30
2018-05-10T12:41:36.002Z,6.00
2018-05-10T12:44:03.443Z,7.50
2018-05-10T12:46:30.926Z,7.17
2018-05-10T12:48:58.420Z,5.37
2018-05-10T12:51:25.892Z,6.07
2018-05-10T12:53:53.399Z,6.63
2018-05-10T12:56:20.911Z,5.30
2018-05-10T12:58:48.453Z,5.80
2018-05-10T13:01:15.933Z,7.33
2018-05-10T13:03:43.468Z,5.83
2018-05-10T13:06:10.942Z,9.70
2018-05-10T13:08:38.423Z,6.40
2018-05-10T13:11:05.901Z,5.83
2018-05-10T13:13:33.350Z,5.53
2018-05-10T13:16:00.946Z,5.57
2018-05-10T13:18:28.429Z,5.70
2018-05-10T13:20:56.044Z,5.93
2018-05-10T13:23:23.551Z,6.77
2018-05-10T13:25:51.018Z,6.47
2018-05-10T13:28:18.530Z,6.57
2018-05-10T13:30:46.024Z,4.57
2018-05-10T13:33:13.569Z,5.70
2018-05-10T13:35:41.076Z,5.40
2018-05-10T13:38:08.579Z,5.13
2018-05-10T13:40:36.042Z,5.77
2018-05-10T13:43:03.575Z,5.20
2018-05-10T13:45:31.069Z,4.60
2018-05-10T13:47:58.578Z,5.77
2018-05-10T13:50:26.070Z,5.67
2018-05-10T13:52:53.566Z,5.73
2018-05-10T13:55:21.043Z,5.63
2018-05-10T13:57:48.546Z,5.60
2018-05-10T14:00:16.072Z,5.73
2018-05-10T14:02:43.564Z,5.60
2018-05-10T14:05:11.027Z,6.40
2018-05-10T14:07:38.582Z,5.07
2018-05-10T14:10:06.055Z,4.97
2018-05-10T14:12:33.539Z,5.50
2018-05-10T14:15:01.150Z,5.60
2018-05-10T14:17:28.721Z,4.73
2018-05-10T14:19:56.192Z,6.30
2018-05-10T14:22:23.676Z,6.40
2018-05-10T14:24:51.180Z,7.53
2018-05-10T14:27:18.668Z,4.37
2018-05-10T14:29:46.198Z,5.70
2018-05-10T14:34:47.503Z,6.33
2018-05-10T14:37:15.080Z,5.50
2018-05-10T14:39:42.565Z,5.30
2018-05-10T14:42:10.058Z,5.23
2018-05-10T14:44:37.621Z,5.07
2018-05-10T14:47:05.139Z,8.93
2018-05-10T14:49:32.619Z,10.20
2018-05-10T14:52:00.178Z,6.43
2018-05-10T14:54:27.670Z,5.80
2018-05-10T14:56:55.182Z,5.60
2018-05-10T14:59:22.670Z,5.90
2018-05-10T15:01:50.199Z,4.90
2018-05-10T15:04:17.668Z,6.20
2018-05-10T15:06:45.127Z,5.63
2018-05-10T15:09:12.650Z,5.57
2018-05-10T15:11:40.149Z,5.50
2018-05-10T15:14:07.636Z,5.87
2018-05-10T15:16:35.134Z,5.20
2018-05-10T15:19:02.673Z,5.77
2018-05-10T15:21:30.162Z,4.40
2018-05-10T15:23:57.663Z,5.67
2018-05-10T15:26:25.200Z,6.70
2018-05-10T15:28:52.689Z,4.70
2018-05-10T15:31:20.148Z,6.50
2018-05-10T15:33:47.652Z,5.80
2018-05-10T15:36:15.218Z,5.20
2018-05-10T15:38:42.771Z,5.20
2018-05-10T15:41:10.241Z,5.80
2018-05-10T15:43:37.749Z,6.70
2018-05-10T15:46:05.328Z,6.47
2018-05-10T15:48:34.470Z,7.03
2018-05-10T15:51:02.135Z,6.33
2018-05-10T15:53:29.621Z,5.50
2018-05-10T15:55:57.189Z,6.90
2018-05-10T15:58:24.713Z,5.93
2018-05-10T16:00:52.237Z,6.50
2018-05-10T16:03:19.768Z,7.20
2018-05-10T16:05:47.289Z,8.03
2018-05-10T16:08:14.757Z,8.73
2018-05-10T16:10:42.240Z,7.10
2018-05-10T16:13:09.738Z,7.03
2018-05-10T16:15:37.207Z,9.13
2018-05-10T16:18:04.843Z,6.63
2018-05-10T16:20:32.373Z,7.60
2018-05-10T16:22:59.905Z,7.80
2018-05-10T16:25:27.442Z,7.53
2018-05-10T16:27:54.976Z,6.83
2018-05-10T16:30:22.472Z,8.47
2018-05-10T16:32:50.085Z,14.67
2018-05-10T16:35:17.607Z,13.00
2018-05-10T16:37:45.065Z,9.90
2018-05-10T16:40:12.570Z,8.57
2018-05-10T16:42:40.032Z,7.80
2018-05-10T16:45:07.556Z,7.97
2018-05-10T16:47:35.016Z,6.90
2018-05-10T16:50:02.517Z,5.33
2018-05-10T16:52:30.043Z,7.53
2018-05-10T16:54:57.631Z,9.43
2018-05-10T16:57:25.138Z,5.87
2018-05-10T16:59:52.613Z,10.43
2018-05-10T17:02:20.075Z,11.37
2018-05-10T17:04:47.588Z,9.60
2018-05-10T17:07:15.091Z,8.30
2018-05-10T17:09:42.662Z,7.87
2018-05-10T17:12:10.246Z,6.33
2018-05-10T17:14:37.775Z,5.80
2018-05-10T17:17:05.288Z,11.73
2018-05-10T17:19:32.809Z,8.90
2018-05-10T17:22:00.311Z,7.87
2018-05-10T17:24:27.779Z,5.93
2018-05-10T17:26:55.255Z,8.03
2018-05-10T17:29:22.704Z,8.20
2018-05-10T17:31:50.181Z,9.67
2018-05-10T17:34:17.969Z,7.60
2018-05-10T17:36:45.437Z,8.63
2018-05-10T17:39:12.935Z,9.13
2018-05-10T17:41:40.465Z,12.17
2018-05-10T17:44:07.938Z,12.23
2018-05-10T17:46:35.425Z,14.07
2018-05-10T17:49:02.890Z,13.10
2018-05-10T17:51:30.383Z,14.63
2018-05-10T17:53:57.875Z,13.10
2018-05-10T17:56:25.447Z,13.60
2018-05-10T17:58:53.161Z,13.53
2018-05-10T18:01:20.696Z,13.03
2018-05-10T18:03:48.188Z,10.90
2018-05-10T18:06:15.639Z,11.70
2018-05-10T18:08:43.226Z,11.07
2018-05-10T18:11:10.685Z,9.27
2018-05-10T18:13:38.253Z,9.83
2018-05-10T18:16:05.773Z,10.00
2018-05-10T18:18:33.408Z,12.10
2018-05-10T18:21:00.966Z,12.33
2018-05-10T18:23:28.517Z,12.80
2018-05-10T18:25:56.014Z,13.40
2018-05-10T18:28:23.525Z,16.93
2018-05-10T18:30:51.017Z,14.63
2018-05-10T18:33:18.606Z,16.73
2018-05-10T18:35:46.066Z,17.80
2018-05-10T18:38:13.533Z,16.07
2018-05-10T18:40:41.016Z,20.30
2018-05-10T18:43:08.544Z,18.07
2018-05-10T18:45:36.029Z,20.70
2018-05-10T18:48:03.639Z,23.40
2018-05-10T18:50:31.139Z,34.63
2018-05-10T18:52:58.643Z,29.23
2018-05-10T18:55:26.147Z,29.10
2018-05-10T18:57:53.676Z,31.30
2018-05-10T19:00:21.168Z,30.13
2018-05-10T19:02:48.621Z,28.77
2018-05-10T19:05:16.075Z,42.83
2018-05-10T19:07:43.652Z,40.03
2018-05-10T19:10:11.136Z,33.50
2018-05-10T19:12:38.636Z,38.70
2018-05-10T19:15:06.131Z,39.50
2018-05-10T19:17:33.596Z,34.30
2018-05-10T19:20:01.196Z,35.93
2018-05-10T19:22:28.759Z,32.60
2018-05-10T19:24:56.265Z,35.13
2018-05-10T19:27:23.744Z,34.43
2018-05-10T19:29:51.278Z,37.17
2018-05-10T19:32:18.839Z,38.97
2018-05-10T19:34:46.450Z,38.70
2018-05-10T19:37:13.988Z,38.40
2018-05-10T19:39:41.545Z,36.20
2018-05-10T19:42:09.033Z,37.27
2018-05-10T19:44:36.495Z,43.23
2018-05-10T19:47:03.952Z,34.30
2018-05-10T19:49:31.461Z,41.80
2018-05-10T19:51:58.987Z,35.37
2018-05-10T19:54:26.470Z,40.27
2018-05-10T19:56:54.030Z,36.13
2018-05-10T19:59:21.494Z,31.10
2018-05-10T20:01:48.939Z,39.20
2018-05-10T20:04:16.415Z,35.60
2018-05-10T20:06:43.965Z,55.97
2018-05-10T20:09:11.435Z,35.77
2018-05-10T20:11:38.912Z,33.83
2018-05-10T20:14:06.415Z,33.70
2018-05-10T20:16:34.361Z,33.80
2018-05-10T20:19:01.939Z,34.27
2018-05-10T20:21:29.457Z,47.03
2018-05-10T20:23:57.114Z,38.47
2018-05-10T20:26:24.735Z,36.60
2018-05-10T20:28:52.200Z,34.13
2018-05-10T20:31:19.925Z,33.13
2018-05-10T20:33:47.446Z,27.30
2018-05-10T20:36:14.941Z,46.10
2018-05-10T20:38:42.410Z,28.20
2018-05-10T20:41:09.895Z,36.60
2018-05-10T20:43:37.417Z,34.33
2018-05-10T20:46:04.925Z,36.07
2018-05-10T20:48:32.509Z,33.73
2018-05-10T20:51:00.065Z,32.17
2018-05-10T20:53:27.583Z,30.77
2018-05-10T20:55:55.175Z,30.40
2018-05-10T20:58:22.645Z,34.97
2018-05-10T21:00:50.081Z,26.70
2018-05-10T21:03:17.597Z,35.33
2018-05-10T21:05:45.927Z,27.10
2018-05-10T21:08:13.394Z,27.00
2018-05-10T21:10:40.957Z,29.47
2018-05-10T21:13:08.433Z,24.40
2018-05-10T21:15:35.921Z,26.13
2018-05-10T21:18:03.420Z,25.77
2018-05-10T21:20:30.960Z,23.10
2018-05-10T21:22:58.420Z,27.40
2018-05-10T21:25:26.004Z,25.90
2018-05-10T21:27:53.475Z,23.83
2018-05-10T21:30:20.984Z,23.73
2018-05-10T21:32:48.472Z,30.83
2018-05-10T21:35:15.953Z,23.80
2018-05-10T21:37:43.432Z,22.57
2018-05-10T21:40:10.919Z,23.30
2018-05-10T21:42:38.445Z,21.83
2018-05-10T21:45:05.908Z,21.10
2018-05-10T21:47:33.377Z,23.50
2018-05-10T21:50:02.565Z,20.33
2018-05-10T21:52:30.104Z,20.53
2018-05-10T21:54:57.634Z,21.90
2018-05-10T21:57:25.202Z,23.90
2018-05-10T21:59:52.695Z,26.10
2018-05-10T22:02:22.793Z,27.27
2018-05-10T22:04:50.262Z,28.67
2018-05-10T22:07:17.792Z,29.30
2018-05-10T22:09:45.288Z,51.20
2018-05-10T22:12:12.916Z,28.70
2018-05-10T22:14:40.365Z,29.27
2018-05-10T22:17:07.930Z,29.57
2018-05-10T22:19:35.425Z,31.50
2018-05-10T22:22:02.912Z,27.80
2018-05-10T22:24:30.389Z,31.37
2018-05-10T22:26:57.929Z,27.33
2018-05-10T22:29:25.433Z,23.93
2018-05-10T22:31:52.918Z,25.33
2018-05-10T22:34:20.450Z,25.17
2018-05-10T22:36:47.985Z,24.73
2018-05-10T22:39:15.473Z,30.93
2018-05-10T22:41:43.117Z,26.97
2018-05-10T22:44:10.598Z,29.90
2018-05-10T22:46:38.060Z,27.30
2018-05-10T22:49:05.549Z,28.97
2018-05-10T22:51:33.141Z,26.70
2018-05-10T22:54:00.730Z,30.83
2018-05-10T22:56:28.262Z,30.00
2018-05-10T22:58:55.822Z,31.00
2018-05-10T23:01:23.306Z,30.77
2018-05-10T23:03:50.793Z,31.03
2018-05-10T23:06:18.369Z,35.50
2018-05-10T23:08:45.829Z,35.20
2018-05-10T23:11:13.328Z,33.30
2018-05-10T23:13:40.824Z,33.07
2018-05-10T23:16:08.329Z,33.13
2018-05-10T23:18:35.859Z,34.27
2018-05-10T23:21:03.332Z,35.33
2018-05-10T23:23:30.809Z,34.30
2018-05-10T23:25:58.275Z,33.07
2018-05-10T23:28:25.779Z,36.90
2018-05-10T23:30:53.237Z,32.23
2018-05-10T23:35:54.704Z,31.77
2018-05-10T23:38:22.292Z,35.10
2018-05-10T23:40:49.855Z,32.27
2018-05-10T23:43:17.362Z,28.17
2018-05-10T23:45:44.824Z,32.30
2018-05-10T23:48:12.283Z,29.97
2018-05-10T23:50:39.813Z,26.93
2018-05-10T23:53:07.332Z,32.30
2018-05-10T23:55:34.901Z,31.83
2018-05-10T23:58:02.393Z,28.63
